Time;durP1;ratioP1;P1;durP2;ratioP2;P2;SDS_P1;SDS_P2;PMS_P1;PMS_P2;Temp;Humidity;BMP_temperature;BMP_pressure;BME280_temperature;BME280_humidity;BME280_pressure;Samples;Min_cycle;Max_cycle;Signal;HPM_P1;HPM_P2
2022/08/13 00:01:17;;;;;;;3.03;1.20;;;22.90;58.90;;;;;;5093471;28;20102;-69
2022/08/13 00:03:44;;;;;;;3.15;1.33;;;22.80;59.10;;;;;;5093188;28;20062;-69
2022/08/13 00:06:11;;;;;;;5.20;1.20;;;22.90;59.20;;;;;;5093348;28;20106;-69
2022/08/13 00:08:39;;;;;;;2.10;1.30;;;22.80;59.40;;;;;;5093488;28;20476;-69
2022/08/13 00:11:06;;;;;;;2.10;1.15;;;22.80;59.40;;;;;;5093538;28;20086;-69
2022/08/13 00:13:33;;;;;;;3.40;1.10;;;22.80;59.60;;;;;;5093232;28;20059;-69
2022/08/13 00:15:59;;;;;;;2.85;1.30;;;22.70;59.70;;;;;;5093642;28;20024;-69
2022/08/13 00:18:25;;;;;;;;;;;22.70;59.60;;;;;;5093513;28;20031;-69
2022/08/13 00:20:54;;;;;;;1.60;0.88;;;22.70;59.60;;;;;;5091878;28;19986;-69
2022/08/13 00:23:22;;;;;;;1.88;1.10;;;22.70;59.70;;;;;;5091791;28;20047;-69
2022/08/13 00:25:51;;;;;;;1.35;1.10;;;22.50;60.80;;;;;;5093184;28;20020;-68
2022/08/13 00:28:19;;;;;;;2.22;1.10;;;22.30;60.30;;;;;;5093199;28;20059;-68
2022/08/13 00:30:46;;;;;;;1.52;1.02;;;22.40;60.40;;;;;;5091785;28;20020;-68
2022/08/13 00:33:16;;;;;;;2.05;1.30;;;22.40;60.50;;;;;;5093095;28;20480;-69
2022/08/13 00:35:43;;;;;;;1.75;1.25;;;22.50;60.50;;;;;;5092978;28;20036;-69
2022/08/13 00:38:15;;;;;;;2.60;1.42;;;22.50;60.50;;;;;;5093156;28;20021;-68
2022/08/13 00:40:46;;;;;;;2.10;1.25;;;22.40;60.60;;;;;;5091738;28;20023;-68
2022/08/13 00:43:11;;;;;;;2.08;1.27;;;22.50;60.60;;;;;;5095034;28;20031;-68
2022/08/13 00:45:37;;;;;;;3.35;1.17;;;22.50;60.60;;;;;;5095489;28;20020;-68
2022/08/13 00:50:50;;;;;;;1.75;1.20;;;22.50;60.60;;;;;;5097272;28;20124;-68
2022/08/13 00:53:17;;;;;;;2.88;1.13;;;22.40;60.70;;;;;;5097032;28;20395;-68
2022/08/13 00:55:48;;;;;;;1.63;1.23;;;22.40;60.60;;;;;;5096643;28;20016;-68
2022/08/13 00:58:18;;;;;;;1.15;0.93;;;22.40;60.90;;;;;;5096776;28;20487;-68
2022/08/13 01:00:52;;;;;;;2.30;1.27;;;22.40;61.00;;;;;;5095520;28;20451;-68
2022/08/13 01:03:19;;;;;;;2.00;1.23;;;22.30;61.00;;;;;;5095258;28;20498;-68
2022/08/13 01:05:47;;;;;;;4.15;1.15;;;22.20;61.20;;;;;;5096417;28;20040;-68
2022/08/13 01:08:16;;;;;;;2.53;1.20;;;22.30;61.20;;;;;;5095052;28;20024;-68
2022/08/13 01:10:43;;;;;;;2.08;1.33;;;22.40;61.20;;;;;;5096319;28;20020;-68
2022/08/13 01:13:11;;;;;;;3.13;1.17;;;22.40;61.10;;;;;;5096618;28;20039;-68
2022/08/13 01:15:39;;;;;;;1.65;1.40;;;22.40;61.20;;;;;;5096615;28;20027;-68
2022/08/13 01:18:13;;;;;;;2.30;1.23;;;22.30;61.30;;;;;;5095014;28;20047;-68
2022/08/13 01:20:48;;;;;;;2.47;1.15;;;22.20;61.50;;;;;;5096386;28;20073;-68
2022/08/13 01:23:16;;;;;;;5.53;1.33;;;22.20;61.80;;;;;;5095027;28;20031;-69
2022/08/13 01:25:44;;;;;;;5.15;1.20;;;22.00;61.90;;;;;;5096116;28;20020;-68
2022/08/13 01:28:10;;;;;;;3.30;1.00;;;21.90;62.30;;;;;;5119524;22;20426;-72
2022/08/13 01:30:39;;;;;;;2.67;1.00;;;21.80;62.70;;;;;;5117554;28;20035;-72
2022/08/13 01:33:08;;;;;;;2.00;1.23;;;21.50;63.10;;;;;;5117840;27;20031;-71
2022/08/13 01:35:34;;;;;;;1.45;1.15;;;21.40;63.60;;;;;;5117760;28;20103;-71
2022/08/13 01:38:00;;;;;;;4.53;1.30;;;21.40;63.80;;;;;;5117614;28;20128;-71
2022/08/13 01:40:25;;;;;;;;;;;21.40;63.70;;;;;;5117660;28;20031;-71
2022/08/13 01:42:51;;;;;;;2.78;1.08;;;21.30;64.00;;;;;;5115498;28;20370;-71
2022/08/13 01:45:18;;;;;;;1.75;1.10;;;21.20;64.00;;;;;;5115995;28;20057;-71
2022/08/13 01:50:29;;;;;;;2.13;1.00;;;21.10;64.40;;;;;;5117284;28;20030;-71
2022/08/13 01:53:05;;;;;;;1.58;1.10;;;21.00;64.70;;;;;;5116935;28;20425;-71
2022/08/13 01:55:37;;;;;;;1.92;1.10;;;21.00;64.80;;;;;;5116436;28;20103;-71
2022/08/13 01:58:04;;;;;;;1.88;1.13;;;21.10;64.70;;;;;;5116807;28;20066;-71
2022/08/13 02:00:31;;;;;;;2.53;1.10;;;21.00;64.80;;;;;;5116512;28;20534;-71
2022/08/13 02:02:59;;;;;;;3.47;1.02;;;21.00;65.00;;;;;;5115258;28;20028;-71
2022/08/13 02:05:26;;;;;;;5.18;1.15;;;21.00;65.00;;;;;;5117184;28;20361;-71
2022/08/13 02:07:52;;;;;;;1.95;1.08;;;21.00;65.10;;;;;;5115477;28;20023;-71
2022/08/13 02:10:21;;;;;;;1.10;1.00;;;20.90;65.30;;;;;;5115014;28;20023;-71
2022/08/13 02:12:50;;;;;;;3.03;1.20;;;20.80;65.70;;;;;;5116341;28;20592;-72
2022/08/13 02:15:16;;;;;;;4.93;1.20;;;20.60;65.90;;;;;;5116300;28;20036;-71
2022/08/13 02:17:42;;;;;;;1.90;0.98;;;20.80;66.00;;;;;;5116240;28;20032;-71
2022/08/13 02:20:17;;;;;;;4.15;1.10;;;20.80;65.90;;;;;;5114722;28;20491;-71
2022/08/13 02:22:47;;;;;;;2.75;1.10;;;20.80;65.70;;;;;;5114529;28;20104;-71
2022/08/13 02:25:17;;;;;;;2.33;1.10;;;20.90;65.60;;;;;;5116266;28;20026;-71
2022/08/13 02:27:43;;;;;;;1.65;0.98;;;20.90;65.70;;;;;;5115935;27;20552;-71
2022/08/13 02:30:11;;;;;;;2.47;1.20;;;20.90;65.70;;;;;;5121028;28;20066;-71
2022/08/13 02:32:40;;;;;;;3.10;1.20;;;20.80;65.90;;;;;;5120840;28;20030;-71
2022/08/13 02:35:08;;;;;;;2.60;1.10;;;20.70;66.10;;;;;;5132323;28;20023;-71
2022/08/13 02:37:36;;;;;;;2.38;1.45;;;20.60;66.40;;;;;;5133141;28;20050;-71
2022/08/13 02:41:37;;;;;;;1.75;1.10;;;20.60;66.60;;;;;;5130183;28;20020;-71
2022/08/13 02:42:53;;;;;;;3.05;1.20;;;20.40;66.90;;;;;;5116938;28;20024;-72
2022/08/13 02:45:21;;;;;;;1.05;0.95;;;20.50;67.10;;;;;;5113904;28;20020;-71
2022/08/13 02:47:48;;;;;;;3.38;1.13;;;20.30;67.50;;;;;;5114032;28;20506;-71
2022/08/13 02:50:14;;;;;;;3.35;1.08;;;20.40;67.60;;;;;;5115708;28;20019;-71
2022/08/13 02:52:41;;;;;;;2.58;1.10;;;20.30;67.60;;;;;;5116470;28;20099;-71
2022/08/13 02:55:08;;;;;;;2.33;1.10;;;20.40;67.80;;;;;;5119245;28;20114;-71
2022/08/13 02:57:34;;;;;;;2.25;1.40;;;20.30;67.80;;;;;;5120542;28;20076;-71
2022/08/13 03:00:00;;;;;;;;;;;20.30;68.00;;;;;;5118331;28;20412;-71
2022/08/13 03:02:28;;;;;;;3.85;1.20;;;20.20;68.20;;;;;;5115915;28;19911;-71
2022/08/13 03:04:53;;;;;;;3.47;1.10;;;20.00;68.60;;;;;;5113931;28;20027;-72
2022/08/13 03:07:19;;;;;;;1.73;1.15;;;19.90;68.90;;;;;;5114375;28;20024;-71
2022/08/13 03:09:46;;;;;;;2.75;1.48;;;19.90;68.90;;;;;;5114960;28;20133;-71
2022/08/13 03:12:14;;;;;;;2.00;1.15;;;20.00;69.00;;;;;;5114926;28;20468;-71
2022/08/13 03:14:42;;;;;;;2.78;1.10;;;19.90;69.30;;;;;;5113815;28;20034;-72
2022/08/13 03:17:07;;;;;;;3.05;1.05;;;19.80;69.50;;;;;;5115598;28;20051;-71
2022/08/13 03:19:33;;;;;;;3.70;1.25;;;19.80;69.70;;;;;;5115604;28;20020;-71
2022/08/13 03:22:01;;;;;;;2.08;1.08;;;19.60;69.90;;;;;;5113416;28;20051;-71
2022/08/13 03:24:27;;;;;;;1.70;1.27;;;19.70;70.20;;;;;;5114749;28;20468;-71
2022/08/13 03:26:53;;;;;;;6.35;1.10;;;19.60;70.80;;;;;;5118902;28;20046;-71
2022/08/13 03:29:19;;;;;;;1.83;1.10;;;19.60;70.10;;;;;;5121963;28;20495;-71
2022/08/13 03:31:46;;;;;;;1.83;1.08;;;19.70;70.10;;;;;;5115370;28;20040;-71
2022/08/13 03:34:12;;;;;;;1.95;1.30;;;19.80;70.10;;;;;;5114842;28;20065;-71
2022/08/13 03:36:37;;;;;;;1.80;1.10;;;19.70;70.20;;;;;;5115312;28;20052;-71
2022/08/13 03:39:04;;;;;;;4.10;1.55;;;19.80;70.00;;;;;;5114936;28;20015;-71
2022/08/13 03:41:29;;;;;;;5.43;1.00;;;19.80;70.00;;;;;;5114369;28;20020;-71
2022/08/13 03:43:55;;;;;;;3.42;1.20;;;19.80;70.00;;;;;;5114415;28;20011;-71
2022/08/13 03:46:25;;;;;;;3.33;1.00;;;19.90;69.80;;;;;;5117581;28;20488;-71
2022/08/13 03:48:51;;;;;;;1.85;1.20;;;19.90;69.70;;;;;;5114797;28;20034;-70
2022/08/13 03:51:23;;;;;;;2.92;1.20;;;19.90;69.70;;;;;;5112949;28;20595;-71
2022/08/13 03:53:50;;;;;;;1.30;0.90;;;20.00;69.60;;;;;;5115163;28;20038;-71
2022/08/13 03:56:18;;;;;;;2.95;1.27;;;20.00;69.50;;;;;;5113416;28;20032;-70
2022/08/13 03:58:44;;;;;;;4.15;1.10;;;20.00;69.80;;;;;;5116136;28;20072;-70
2022/08/13 04:01:10;;;;;;;1.67;1.08;;;19.90;69.70;;;;;;5113379;28;20049;-72
2022/08/13 04:03:41;;;;;;;1.65;1.10;;;19.90;69.90;;;;;;5114481;28;20031;-71
2022/08/13 04:06:09;;;;;;;2.85;1.10;;;19.90;70.00;;;;;;5113009;28;20038;-71
2022/08/13 04:08:36;;;;;;;4.00;1.45;;;19.80;70.20;;;;;;5112716;28;20024;-71
2022/08/13 04:11:04;;;;;;;2.15;1.20;;;19.90;70.20;;;;;;5113097;28;20383;-70
2022/08/13 04:13:36;;;;;;;1.42;1.10;;;19.90;70.20;;;;;;5113979;28;20024;-71
2022/08/13 04:16:07;;;;;;;1.98;1.08;;;19.90;70.10;;;;;;5112357;28;20024;-71
2022/08/13 04:18:36;;;;;;;2.33;1.10;;;19.90;70.20;;;;;;5116736;28;20019;-70
2022/08/13 04:21:08;;;;;;;2.55;1.20;;;19.80;70.20;;;;;;5118469;28;20102;-70
2022/08/13 04:23:39;;;;;;;2.22;1.30;;;19.90;70.50;;;;;;5118195;28;20069;-71
2022/08/13 04:26:05;;;;;;;1.73;1.08;;;19.80;70.70;;;;;;5117349;28;20024;-71
2022/08/13 04:28:31;;;;;;;1.52;1.10;;;19.80;70.60;;;;;;5118248;28;20061;-71
2022/08/13 04:30:58;;;;;;;1.58;1.20;;;19.70;70.90;;;;;;5117941;28;20028;-71
2022/08/13 04:33:24;;;;;;;2.83;1.08;;;19.70;71.10;;;;;;5117971;28;20039;-71
2022/08/13 04:35:50;;;;;;;4.97;1.02;;;19.60;71.50;;;;;;5117885;28;20023;-71
2022/08/13 04:38:17;;;;;;;1.27;1.10;;;19.60;71.50;;;;;;5118287;28;20058;-71
2022/08/13 04:40:45;;;;;;;2.47;1.30;;;19.60;71.50;;;;;;5118171;28;20020;-71
2022/08/13 04:43:12;;;;;;;1.17;1.05;;;19.60;71.60;;;;;;5116516;28;20020;-71
2022/08/13 04:45:38;;;;;;;1.92;0.90;;;19.60;71.60;;;;;;5119251;28;20016;-72
2022/08/13 04:48:12;;;;;;;3.88;1.17;;;19.70;71.60;;;;;;5119361;28;20643;-71
2022/08/13 04:50:38;;;;;;;11.25;1.55;;;19.70;71.50;;;;;;5118547;28;20380;-71
2022/08/13 04:53:05;;;;;;;;;;;19.60;71.70;;;;;;5117242;28;20105;-71
2022/08/13 04:55:31;;;;;;;3.20;1.20;;;19.50;72.00;;;;;;5117925;28;19904;-71
2022/08/13 04:57:57;;;;;;;;;;;19.30;72.50;;;;;;5130519;28;20036;-71
2022/08/13 05:00:31;;;;;;;3.00;1.58;;;19.30;72.70;;;;;;5132924;28;19910;-71
2022/08/13 05:03:05;;;;;;;3.75;1.60;;;19.30;72.70;;;;;;5130732;28;20064;-72
2022/08/13 05:05:31;;;;;;;1.90;1.13;;;19.30;73.10;;;;;;5123174;28;20422;-71
2022/08/13 05:07:57;;;;;;;2.75;1.42;;;19.30;73.10;;;;;;5117540;28;20023;-71
2022/08/13 05:10:22;;;;;;;1.48;1.02;;;19.30;73.30;;;;;;5117255;28;20028;-70
2022/08/13 05:12:48;;;;;;;2.20;1.38;;;19.10;73.60;;;;;;5117377;28;20027;-71
2022/08/13 05:15:14;;;;;;;1.50;1.00;;;19.10;73.90;;;;;;5117403;28;20027;-70
2022/08/13 05:17:41;;;;;;;1.70;1.20;;;19.20;73.80;;;;;;5116200;28;20022;-70
2022/08/13 05:20:15;;;;;;;1.83;1.10;;;19.20;74.10;;;;;;5115816;28;20032;-71
2022/08/13 05:22:41;;;;;;;4.10;2.63;;;19.20;73.90;;;;;;5117346;28;20044;-71
2022/08/13 05:25:09;;;;;;;3.05;1.40;;;19.30;73.70;;;;;;5116960;28;20134;-71
2022/08/13 05:27:34;;;;;;;1.40;1.10;;;19.30;73.80;;;;;;5115768;28;20031;-71
2022/08/13 05:30:00;;;;;;;2.83;1.20;;;19.20;73.80;;;;;;5115745;28;20488;-71
2022/08/13 05:32:29;;;;;;;1.63;1.10;;;19.20;73.80;;;;;;5117235;28;20019;-71
2022/08/13 05:34:59;;;;;;;1.65;1.00;;;19.10;74.10;;;;;;5116963;28;20028;-71
2022/08/13 05:37:25;;;;;;;3.50;1.38;;;19.10;74.40;;;;;;5117752;28;20352;-71
2022/08/13 05:39:51;;;;;;;2.10;1.10;;;19.20;74.50;;;;;;5116415;28;20016;-72
2022/08/13 05:42:20;;;;;;;2.40;1.27;;;19.20;74.50;;;;;;5119238;28;20028;-71
2022/08/13 05:44:47;;;;;;;1.60;0.98;;;19.30;74.40;;;;;;5117174;28;20443;-71
2022/08/13 05:47:14;;;;;;;2.33;1.10;;;19.50;73.90;;;;;;5116891;28;20038;-72
2022/08/13 05:49:39;;;;;;;3.15;1.10;;;19.60;73.60;;;;;;5116843;28;20016;-72
2022/08/13 05:52:05;;;;;;;1.45;1.00;;;19.60;73.60;;;;;;5116721;28;20024;-72
2022/08/13 05:54:31;;;;;;;2.78;1.27;;;19.70;73.30;;;;;;5117527;28;20030;-71
2022/08/13 05:56:57;;;;;;;2.22;1.23;;;19.70;73.20;;;;;;5117978;28;20464;-71
2022/08/13 06:04:52;;;;;;;4.25;1.30;;;19.90;73.30;;;;;;5119144;28;20100;-71
2022/08/13 06:07:19;;;;;;;1.38;1.00;;;20.00;73.20;;;;;;5117763;28;20027;-71
2022/08/13 06:09:44;;;;;;;;;;;19.90;73.30;;;;;;5117601;28;20498;-71
2022/08/13 06:12:11;;;;;;;3.50;1.55;;;20.00;73.30;;;;;;5117427;28;19904;-72
2022/08/13 06:14:38;;;;;;;5.00;1.30;;;20.00;73.50;;;;;;5118266;28;20460;-71
2022/08/13 06:17:04;;;;;;;3.88;1.30;;;20.10;73.20;;;;;;5116655;28;20028;-71
2022/08/13 06:19:32;;;;;;;2.17;1.10;;;20.20;73.10;;;;;;5117151;28;20019;-71
2022/08/13 06:22:04;;;;;;;4.72;1.48;;;20.30;72.80;;;;;;5115630;28;20028;-71
2022/08/13 06:24:37;;;;;;;2.65;1.23;;;20.30;72.60;;;;;;5114622;28;20392;-71
2022/08/13 06:27:07;;;;;;;3.75;1.27;;;20.30;72.50;;;;;;5115584;28;20019;-71
2022/08/13 06:29:35;;;;;;;1.92;1.33;;;20.50;72.20;;;;;;5115171;28;20028;-71
2022/08/13 06:32:03;;;;;;;2.15;1.30;;;20.50;72.10;;;;;;5115427;28;20028;-72
2022/08/13 06:34:35;;;;;;;3.63;1.20;;;20.50;72.10;;;;;;5115936;28;20027;-71
2022/08/13 06:37:02;;;;;;;3.53;1.30;;;20.60;72.20;;;;;;5118554;28;20042;-72
2022/08/13 06:39:30;;;;;;;2.38;1.20;;;20.70;71.70;;;;;;5116240;28;20453;-72
2022/08/13 06:42:02;;;;;;;3.28;1.20;;;20.70;71.70;;;;;;5116782;28;20015;-72
2022/08/13 06:44:32;;;;;;;4.53;1.20;;;20.90;71.60;;;;;;5116061;28;20016;-72
2022/08/13 06:47:03;;;;;;;2.13;1.27;;;21.00;71.10;;;;;;5116976;28;20069;-71
2022/08/13 06:49:31;;;;;;;2.55;1.10;;;21.10;71.10;;;;;;5114234;28;20031;-72
2022/08/13 06:51:58;;;;;;;2.90;1.23;;;21.20;70.90;;;;;;5116635;28;20023;-71
2022/08/13 06:54:24;;;;;;;1.75;1.20;;;21.30;70.70;;;;;;5115612;28;20030;-70
2022/08/13 06:56:52;;;;;;;3.33;1.20;;;21.30;70.50;;;;;;5115878;28;20020;-72
2022/08/13 06:59:19;;;;;;;2.85;0.95;;;21.40;70.30;;;;;;5116606;28;20032;-71
2022/08/13 07:01:47;;;;;;;1.38;1.10;;;21.60;69.80;;;;;;5116025;28;20026;-72
2022/08/13 07:04:21;;;;;;;2.47;1.40;;;21.60;69.30;;;;;;5118106;28;20424;-73
2022/08/13 07:06:50;;;;;;;2.38;1.08;;;21.70;69.20;;;;;;5116794;28;20530;-72
2022/08/13 07:09:19;;;;;;;1.98;1.25;;;21.90;69.10;;;;;;5116189;28;20028;-71
2022/08/13 07:11:45;;;;;;;3.33;0.95;;;21.90;68.80;;;;;;5115085;28;20026;-73
2022/08/13 07:14:13;;;;;;;3.38;1.10;;;22.00;68.40;;;;;;5115311;28;20087;-71
2022/08/13 07:16:41;;;;;;;3.05;1.35;;;22.20;68.30;;;;;;5115488;28;20110;-73
2022/08/13 07:19:06;;;;;;;2.45;1.20;;;22.30;68.10;;;;;;5115643;28;20023;-71
2022/08/13 07:21:33;;;;;;;1.67;1.02;;;22.40;67.80;;;;;;5114395;28;20503;-71
2022/08/13 07:24:04;;;;;;;2.05;1.25;;;22.50;67.80;;;;;;5114903;28;20081;-72
2022/08/13 07:26:33;;;;;;;3.40;1.20;;;22.60;67.50;;;;;;5113141;28;20080;-71
2022/08/13 07:29:01;;;;;;;1.70;1.13;;;22.80;67.10;;;;;;5129125;22;20028;-68
2022/08/13 07:31:29;;;;;;;3.67;1.35;;;22.80;67.10;;;;;;5094194;28;20106;-68
2022/08/13 07:33:57;;;;;;;8.43;1.63;;;22.90;66.70;;;;;;5092444;28;20028;-68
2022/08/13 07:36:27;;;;;;;3.58;1.10;;;23.10;66.50;;;;;;5093734;28;20028;-68
2022/08/13 07:38:53;;;;;;;2.72;1.10;;;23.10;66.30;;;;;;5092519;28;20107;-69
2022/08/13 07:41:20;;;;;;;2.30;1.00;;;23.20;66.20;;;;;;5092291;28;20106;-68
2022/08/13 07:43:47;;;;;;;2.08;1.20;;;23.20;66.00;;;;;;5092155;28;20028;-68
2022/08/13 07:46:15;;;;;;;1.83;1.20;;;23.40;66.30;;;;;;5093219;28;20027;-67
2022/08/13 07:48:49;;;;;;;4.90;1.98;;;23.40;65.80;;;;;;5091982;28;20024;-66
2022/08/13 07:51:19;;;;;;;2.25;1.52;;;23.60;65.50;;;;;;5092011;28;20024;-66
2022/08/13 07:53:47;;;;;;;2.08;1.30;;;23.60;65.40;;;;;;5092967;28;20027;-67
2022/08/13 07:56:21;;;;;;;3.38;1.50;;;23.80;65.40;;;;;;5093135;28;20367;-67
2022/08/13 07:58:46;;;;;;;5.65;1.20;;;23.80;64.80;;;;;;5093336;28;20020;-67
2022/08/13 08:01:12;;;;;;;1.33;1.10;;;23.90;64.80;;;;;;5093148;28;20035;-67
2022/08/13 08:03:42;;;;;;;;;;;24.10;64.80;;;;;;5093651;28;20056;-67
2022/08/13 08:06:10;;;;;;;3.28;1.35;;;24.20;64.60;;;;;;5092004;28;19904;-67
2022/08/13 08:08:38;;;;;;;1.70;1.27;;;24.30;64.60;;;;;;5094067;28;20060;-68
2022/08/13 08:11:05;;;;;;;2.75;1.42;;;24.30;64.00;;;;;;5092230;28;20102;-67
2022/08/13 08:13:35;;;;;;;2.70;1.27;;;24.40;63.80;;;;;;5093053;28;20157;-67
2022/08/13 08:16:03;;;;;;;1.27;1.10;;;24.60;63.60;;;;;;5092911;28;20035;-67
2022/08/13 08:18:29;;;;;;;1.85;1.30;;;24.70;63.40;;;;;;5092879;28;21299;-67
2022/08/13 08:21:08;;;;;;;3.10;1.40;;;24.80;62.90;;;;;;5091945;28;20031;-68
2022/08/13 08:23:35;;;;;;;4.30;1.40;;;25.20;62.60;;;;;;5093183;28;20024;-68
2022/08/13 08:26:07;;;;;;;3.78;1.30;;;27.10;60.20;;;;;;5091616;28;20042;-68
2022/08/13 08:28:34;;;;;;;2.05;1.00;;;30.30;57.00;;;;;;5092641;28;20060;-66
2022/08/13 08:31:00;;;;;;;4.75;1.35;;;33.30;52.50;;;;;;5091452;28;20074;-66
2022/08/13 08:33:26;;;;;;;2.95;1.20;;;35.80;49.80;;;;;;5091685;28;20024;-65
2022/08/13 08:35:54;;;;;;;1.95;1.13;;;37.10;47.90;;;;;;5093289;28;20032;-66
2022/08/13 08:43:53;;;;;;;3.30;0.90;;;40.30;44.90;;;;;;5092829;28;20502;-67
2022/08/13 08:46:20;;;;;;;1.00;0.90;;;39.90;44.50;;;;;;5092896;28;20464;-66
2022/08/13 08:48:47;;;;;;;2.35;1.10;;;40.60;44.30;;;;;;5092470;28;20073;-66
2022/08/13 08:51:14;;;;;;;4.22;1.50;;;41.20;44.00;;;;;;5092602;28;20072;-66
2022/08/13 08:53:44;;;;;;;2.08;0.98;;;42.00;43.40;;;;;;5092938;28;20066;-66
2022/08/13 08:56:11;;;;;;;1.83;1.30;;;41.70;42.70;;;;;;5093388;28;20131;-67
2022/08/13 08:58:41;;;;;;;2.25;1.30;;;41.90;43.00;;;;;;5092693;28;20373;-67
2022/08/13 09:01:10;;;;;;;1.23;1.00;;;43.10;42.50;;;;;;5092681;28;20099;-67
2022/08/13 09:03:39;;;;;;;3.17;1.05;;;43.80;42.00;;;;;;5092656;28;20024;-67
2022/08/13 09:06:08;;;;;;;2.22;1.10;;;44.00;41.00;;;;;;5095756;28;20024;-66
2022/08/13 09:08:35;;;;;;;1.13;1.02;;;43.40;40.90;;;;;;5096063;28;20020;-67
2022/08/13 09:11:02;;;;;;;2.40;1.10;;;44.00;41.20;;;;;;5096232;28;20044;-66
2022/08/13 09:13:29;;;;;;;2.38;0.98;;;44.50;40.90;;;;;;5096557;28;20051;-66
2022/08/13 09:15:57;;;;;;;3.75;0.95;;;44.50;40.70;;;;;;5096128;28;20054;-67
2022/08/13 09:18:23;;;;;;;5.07;1.73;;;43.60;40.90;;;;;;5095903;28;20084;-67
2022/08/13 09:20:49;;;;;;;3.45;1.10;;;42.90;41.00;;;;;;5096199;28;20456;-66
2022/08/13 09:23:16;;;;;;;1.38;1.00;;;42.20;41.60;;;;;;5096022;28;20025;-67
2022/08/13 09:25:48;;;;;;;3.42;1.20;;;42.20;41.60;;;;;;5094568;28;20031;-67
2022/08/13 09:28:17;;;;;;;3.58;1.30;;;41.90;41.70;;;;;;5095575;28;20104;-67
2022/08/13 09:30:45;;;;;;;1.30;1.08;;;42.00;41.60;;;;;;5095788;28;20107;-67
2022/08/13 09:33:12;;;;;;;3.03;1.65;;;41.80;41.60;;;;;;5096525;28;20074;-65
2022/08/13 09:35:39;;;;;;;1.45;1.10;;;41.30;41.80;;;;;;5096475;28;20020;-66
2022/08/13 09:38:06;;;;;;;1.33;0.93;;;41.40;42.00;;;;;;5095624;28;20107;-67
2022/08/13 09:40:37;;;;;;;2.20;1.30;;;41.60;42.10;;;;;;5094293;28;20056;-66
2022/08/13 09:43:09;;;;;;;2.42;1.00;;;41.60;41.70;;;;;;5095833;28;20013;-65
2022/08/13 09:45:35;;;;;;;1.70;1.25;;;41.20;41.80;;;;;;5095644;28;20034;-65
2022/08/13 09:48:07;;;;;;;3.05;1.13;;;42.30;41.40;;;;;;5095550;28;20048;-65
2022/08/13 09:50:33;;;;;;;2.60;1.17;;;42.60;41.20;;;;;;5095252;28;20383;-66
2022/08/13 09:52:58;;;;;;;3.85;1.20;;;42.20;40.80;;;;;;5095362;28;20111;-65
2022/08/13 09:55:24;;;;;;;2.10;1.10;;;41.20;42.10;;;;;;5095219;28;20047;-65
2022/08/13 09:57:52;;;;;;;3.20;1.10;;;42.20;45.00;;;;;;5095468;28;20357;-66
2022/08/13 10:00:21;;;;;;;1.65;1.00;;;43.40;44.50;;;;;;5093708;28;20073;-65
2022/08/13 10:02:50;;;;;;;4.07;1.30;;;44.30;40.60;;;;;;5095271;28;20115;-65
2022/08/13 10:05:18;;;;;;;1.20;1.10;;;44.70;41.10;;;;;;5095240;28;20032;-66
2022/08/13 10:07:44;;;;;;;1.20;0.98;;;44.00;41.70;;;;;;5093766;28;20027;-66
2022/08/13 10:10:09;;;;;;;1.92;1.10;;;43.60;42.40;;;;;;5094886;28;20024;-65
2022/08/13 10:12:36;;;;;;;2.83;1.20;;;43.40;40.10;;;;;;5095139;28;20024;-69
2022/08/13 10:15:01;;;;;;;2.97;1.05;;;42.80;41.10;;;;;;5094639;28;20036;-66
2022/08/13 10:17:41;;;;;;;1.58;1.13;;;42.60;42.50;;;;;;5095095;28;20020;-66
2022/08/13 10:20:08;;;;;;;1.63;1.30;;;42.30;41.80;;;;;;5095000;28;20020;-66
2022/08/13 10:22:34;;;;;;;2.72;0.90;;;42.70;41.40;;;;;;5094949;28;20028;-67
2022/08/13 10:24:59;;;;;;;2.47;1.33;;;43.20;42.10;;;;;;5095069;28;20081;-68
2022/08/13 10:27:25;;;;;;;1.30;1.20;;;44.00;40.40;;;;;;5095083;28;20036;-65
2022/08/13 10:29:50;;;;;;;3.95;1.30;;;43.40;40.60;;;;;;5094446;28;20059;-65
2022/08/13 10:32:16;;;;;;;1.67;1.15;;;42.40;40.00;;;;;;5094519;28;20028;-65
2022/08/13 10:34:43;;;;;;;3.58;1.45;;;42.30;40.90;;;;;;5094912;28;20028;-64
2022/08/13 10:37:08;;;;;;;3.03;1.42;;;41.80;41.10;;;;;;5094409;28;20048;-65
2022/08/13 10:39:34;;;;;;;5.22;3.60;;;41.70;41.10;;;;;;5094677;28;20059;-66
2022/08/13 10:42:00;;;;;;;4.43;2.05;;;41.90;40.50;;;;;;5094593;28;20024;-66
2022/08/13 10:44:26;;;;;;;3.00;1.30;;;41.80;40.40;;;;;;5094821;28;20494;-65
2022/08/13 10:46:51;;;;;;;1.80;1.10;;;42.80;40.30;;;;;;5094428;28;20060;-69
2022/08/13 10:49:17;;;;;;;1.77;1.02;;;43.80;40.60;;;;;;5094293;28;20417;-65
2022/08/13 10:51:42;;;;;;;1.67;1.45;;;44.40;40.10;;;;;;5094054;28;20076;-65
2022/08/13 10:54:08;;;;;;;8.95;2.78;;;44.50;39.10;;;;;;5094397;28;20117;-65
2022/08/13 10:56:34;;;;;;;1.90;1.10;;;44.30;39.70;;;;;;5094102;28;20090;-67
2022/08/13 10:59:03;;;;;;;1.88;1.38;;;43.20;39.40;;;;;;5092529;28;20024;-65
2022/08/13 11:01:30;;;;;;;4.63;1.40;;;42.20;40.20;;;;;;5093274;28;20016;-65
2022/08/13 11:03:58;;;;;;;1.65;1.08;;;42.40;40.10;;;;;;5093760;28;20107;-64
2022/08/13 11:06:25;;;;;;;4.72;1.55;;;42.00;39.40;;;;;;5092620;28;20051;-65
2022/08/13 11:08:54;;;;;;;1.20;1.00;;;39.90;40.40;;;;;;5093760;28;20020;-66
2022/08/13 11:11:21;;;;;;;2.83;1.23;;;37.90;41.90;;;;;;5093769;28;20392;-67
2022/08/13 11:13:47;;;;;;;8.52;1.65;;;38.00;42.20;;;;;;5092442;28;20016;-66
2022/08/13 11:19:14;;;;;;;2.45;1.17;;;36.30;42.90;;;;;;5094700;28;20031;-66
2022/08/13 11:21:39;;;;;;;4.25;1.20;;;34.90;43.60;;;;;;5094234;28;20140;-66
2022/08/13 11:24:05;;;;;;;3.38;1.27;;;33.90;44.60;;;;;;5092421;28;20056;-65
2022/08/13 11:26:30;;;;;;;3.80;1.23;;;33.20;45.00;;;;;;5093796;28;20066;-65
2022/08/13 11:28:57;;;;;;;3.35;1.23;;;32.70;45.60;;;;;;5092877;28;20032;-65
2022/08/13 11:31:23;;;;;;;3.30;1.55;;;32.10;46.20;;;;;;5091860;28;20039;-66
2022/08/13 11:33:49;;;;;;;2.75;1.20;;;31.70;46.50;;;;;;5092049;28;20024;-66
2022/08/13 11:36:15;;;;;;;2.22;1.30;;;31.40;47.00;;;;;;5092643;28;20035;-65
2022/08/13 11:38:41;;;;;;;4.00;1.20;;;31.30;47.20;;;;;;5093407;28;20042;-65
2022/08/13 11:41:07;;;;;;;3.55;1.20;;;30.90;47.20;;;;;;5093615;28;20027;-66
2022/08/13 11:43:34;;;;;;;4.95;1.10;;;30.90;47.30;;;;;;5093476;28;20024;-65
2022/08/13 11:45:59;;;;;;;2.03;1.25;;;31.00;47.40;;;;;;5092112;28;20484;-65
2022/08/13 11:48:25;;;;;;;2.88;1.63;;;31.10;47.30;;;;;;5093417;28;20050;-66
2022/08/13 11:50:52;;;;;;;4.20;1.38;;;31.10;47.30;;;;;;5093584;28;20044;-66
2022/08/13 11:53:20;;;;;;;2.63;1.10;;;30.80;47.50;;;;;;5093339;28;20020;-66
2022/08/13 11:55:46;;;;;;;2.60;1.10;;;30.80;47.60;;;;;;5092286;28;20024;-66
2022/08/13 11:58:11;;;;;;;1.35;1.10;;;30.90;47.80;;;;;;5093081;28;20384;-65
2022/08/13 12:00:39;;;;;;;1.35;1.23;;;31.10;47.60;;;;;;5093500;28;20067;-67
2022/08/13 12:03:05;;;;;;;3.90;1.20;;;31.00;47.60;;;;;;5093519;28;20073;-66
2022/08/13 12:05:32;;;;;;;1.60;1.20;;;31.00;47.70;;;;;;5093468;28;20035;-66
2022/08/13 12:07:58;;;;;;;3.50;1.23;;;31.10;47.80;;;;;;5092038;28;20484;-66
2022/08/13 12:10:24;;;;;;;2.20;1.35;;;31.00;47.90;;;;;;5093797;28;20357;-66
2022/08/13 12:12:49;;;;;;;2.15;1.55;;;30.70;48.30;;;;;;5092074;28;20032;-66
2022/08/13 12:15:15;;;;;;;2.75;1.30;;;30.60;48.60;;;;;;5093226;28;20073;-66
2022/08/13 12:17:44;;;;;;;2.17;1.25;;;30.60;48.70;;;;;;5092156;28;20507;-66
2022/08/13 12:20:12;;;;;;;3.83;1.30;;;30.40;48.70;;;;;;5093523;28;20028;-66
2022/08/13 12:22:39;;;;;;;2.30;1.27;;;30.40;48.70;;;;;;5094142;28;20024;-67
2022/08/13 12:25:06;;;;;;;4.00;1.20;;;30.40;48.90;;;;;;5094404;28;20430;-65
2022/08/13 12:27:32;;;;;;;4.63;1.40;;;30.30;48.90;;;;;;5094004;28;20103;-66
2022/08/13 12:29:57;;;;;;;3.70;1.38;;;30.20;48.70;;;;;;5093138;28;20079;-66
2022/08/13 12:32:23;;;;;;;1.40;1.30;;;30.10;48.70;;;;;;5093392;28;20560;-66
2022/08/13 12:34:48;;;;;;;3.15;1.30;;;30.20;49.00;;;;;;5093658;28;20388;-66
2022/08/13 12:37:14;;;;;;;8.02;1.70;;;30.20;48.90;;;;;;5093371;28;20085;-65
2022/08/13 12:39:39;;;;;;;4.18;1.10;;;30.20;49.30;;;;;;5096801;28;20430;-66
2022/08/13 12:42:05;;;;;;;2.85;1.50;;;30.20;48.60;;;;;;5098184;28;20035;-66
2022/08/13 12:44:30;;;;;;;2.80;1.92;;;30.30;48.90;;;;;;5098952;28;20020;-66
2022/08/13 12:46:56;;;;;;;1.58;1.33;;;30.30;49.00;;;;;;5097506;28;20024;-66
2022/08/13 12:49:22;;;;;;;1.65;1.48;;;30.40;48.00;;;;;;5096142;28;20036;-66
2022/08/13 12:51:48;;;;;;;1.67;1.33;;;30.60;48.40;;;;;;5098190;28;20035;-65
2022/08/13 12:54:14;;;;;;;2.75;1.50;;;30.60;48.50;;;;;;5097405;28;20024;-66
2022/08/13 12:56:39;;;;;;;2.65;1.52;;;30.60;48.60;;;;;;5097856;28;20055;-66
2022/08/13 12:59:05;;;;;;;1.70;1.30;;;30.70;48.60;;;;;;5096916;28;20035;-65
2022/08/13 13:01:32;;;;;;;2.45;1.30;;;30.70;48.60;;;;;;5096896;28;20028;-65
2022/08/13 13:03:58;;;;;;;1.60;1.10;;;30.80;48.50;;;;;;5097431;28;20024;-66
2022/08/13 13:06:23;;;;;;;2.05;1.30;;;30.80;48.10;;;;;;5096808;28;20020;-66
2022/08/13 13:08:49;;;;;;;1.45;1.20;;;30.60;48.20;;;;;;5096764;28;20031;-66